CGV4 weather

CLOSED Grand Valley (Madill Field)
Ontario, Canada

Public forecast

Using degrees Celsius for public forecast. Weather courtesy of forecast.io.

Closest aviation weather report (METAR) to Grand Valley (Madill Field)

Closest report is Waterloo Airport, 24.6 nm (45.5 km) SSW. Retrieved 2019/10/17 00:14 UTC (0 seconds ago):

CYKF 170014Z AUTO 23005KT 9SM SCT013 BKN018 OVC060 07/06 A2950 RMK SLP993

Closest aviation forecast (TAF) to Grand Valley (Madill Field)

Closest forecast is Waterloo Airport, 24.6 nm (45.5 km) SSW. Retrieved 2019/10/16 20:39 UTC (3 hours ago):

TAF CYKF 161938Z 1620/1708 24010G20KT P6SM SCT020 OVC040 TEMPO 1620/1624 P6SM -SHRA BKN020 OVC040 FM170000 27015G30KT P6SM OVC012 TEMPO 1700/1704 6SM -SHRA BR OVC008 BECMG 1700/1702 30015G30KT FM170400 30015G30KT P6SM -SHRA OVC012 RMK FCST BASED ON AUTO OBS NXT FCST BY 170200Z